sensor_id;sensor_type;location;lat;lon;timestamp;P1;durP1;ratioP1;P2;durP2;ratioP2
59308;SDS011;48433;53.016;-2.260;2022-11-13T00:00:01;29.80;;;21.33;;
59308;SDS011;48433;53.016;-2.260;2022-11-13T00:02:46;33.92;;;22.73;;
59308;SDS011;48433;53.016;-2.260;2022-11-13T00:05:33;39.67;;;23.73;;
59308;SDS011;48433;53.016;-2.260;2022-11-13T00:08:19;37.03;;;24.90;;
59308;SDS011;48433;53.016;-2.260;2022-11-13T00:11:06;36.72;;;23.88;;
59308;SDS011;48433;53.016;-2.260;2022-11-13T00:13:54;35.25;;;24.38;;
59308;SDS011;48433;53.016;-2.260;2022-11-13T00:16:41;30.05;;;21.70;;
59308;SDS011;48433;53.016;-2.260;2022-11-13T00:19:27;32.90;;;23.15;;
59308;SDS011;48433;53.016;-2.260;2022-11-13T00:22:12;33.95;;;23.25;;
59308;SDS011;48433;53.016;-2.260;2022-11-13T00:24:58;33.63;;;23.35;;
59308;SDS011;48433;53.016;-2.260;2022-11-13T00:27:44;37.45;;;24.50;;
59308;SDS011;48433;53.016;-2.260;2022-11-13T00:30:30;33.83;;;23.67;;
59308;SDS011;48433;53.016;-2.260;2022-11-13T00:33:16;38.25;;;22.85;;
59308;SDS011;48433;53.016;-2.260;2022-11-13T00:36:23;35.65;;;24.05;;
59308;SDS011;48433;53.016;-2.260;2022-11-13T00:39:11;37.10;;;25.08;;
59308;SDS011;48433;53.016;-2.260;2022-11-13T00:41:56;34.30;;;23.25;;
59308;SDS011;48433;53.016;-2.260;2022-11-13T00:44:42;36.20;;;24.40;;
59308;SDS011;48433;53.016;-2.260;2022-11-13T00:47:29;34.53;;;23.75;;
59308;SDS011;48433;53.016;-2.260;2022-11-13T00:50:15;34.90;;;23.88;;
59308;SDS011;48433;53.016;-2.260;2022-11-13T00:53:01;33.20;;;24.67;;
59308;SDS011;48433;53.016;-2.260;2022-11-13T00:55:47;33.53;;;24.00;;
59308;SDS011;48433;53.016;-2.260;2022-11-13T00:58:33;35.75;;;24.75;;
59308;SDS011;48433;53.016;-2.260;2022-11-13T01:01:19;36.20;;;24.20;;
59308;SDS011;48433;53.016;-2.260;2022-11-13T01:04:06;35.20;;;23.70;;
59308;SDS011;48433;53.016;-2.260;2022-11-13T01:06:52;38.03;;;23.77;;
59308;SDS011;48433;53.016;-2.260;2022-11-13T01:09:39;32.63;;;23.55;;
59308;SDS011;48433;53.016;-2.260;2022-11-13T01:12:25;29.95;;;23.23;;
59308;SDS011;48433;53.016;-2.260;2022-11-13T01:15:11;35.80;;;24.15;;
59308;SDS011;48433;53.016;-2.260;2022-11-13T01:17:58;31.15;;;22.40;;
59308;SDS011;48433;53.016;-2.260;2022-11-13T01:20:44;32.55;;;21.95;;
59308;SDS011;48433;53.016;-2.260;2022-11-13T01:23:30;31.65;;;22.52;;
59308;SDS011;48433;53.016;-2.260;2022-11-13T01:26:18;37.58;;;23.23;;
59308;SDS011;48433;53.016;-2.260;2022-11-13T01:29:08;30.67;;;22.80;;
59308;SDS011;48433;53.016;-2.260;2022-11-13T01:31:55;33.92;;;23.73;;
59308;SDS011;48433;53.016;-2.260;2022-11-13T01:34:41;34.47;;;23.02;;
59308;SDS011;48433;53.016;-2.260;2022-11-13T01:37:27;32.10;;;22.45;;
59308;SDS011;48433;53.016;-2.260;2022-11-13T01:40:13;34.83;;;23.13;;
59308;SDS011;48433;53.016;-2.260;2022-11-13T01:43:10;37.63;;;22.75;;
59308;SDS011;48433;53.016;-2.260;2022-11-13T01:49:25;29.67;;;20.75;;
59308;SDS011;48433;53.016;-2.260;2022-11-13T01:52:14;32.55;;;22.95;;
59308;SDS011;48433;53.016;-2.260;2022-11-13T01:55:07;33.28;;;21.88;;
59308;SDS011;48433;53.016;-2.260;2022-11-13T01:58:00;34.28;;;23.42;;
59308;SDS011;48433;53.016;-2.260;2022-11-13T02:00:47;33.75;;;23.13;;
59308;SDS011;48433;53.016;-2.260;2022-11-13T02:03:33;35.22;;;24.10;;
59308;SDS011;48433;53.016;-2.260;2022-11-13T02:06:20;32.05;;;23.45;;
59308;SDS011;48433;53.016;-2.260;2022-11-13T02:09:06;35.15;;;22.88;;
59308;SDS011;48433;53.016;-2.260;2022-11-13T02:11:54;31.77;;;22.17;;
59308;SDS011;48433;53.016;-2.260;2022-11-13T02:14:41;37.85;;;23.40;;
59308;SDS011;48433;53.016;-2.260;2022-11-13T02:17:31;37.25;;;24.55;;
59308;SDS011;48433;53.016;-2.260;2022-11-13T02:20:24;41.83;;;24.57;;
59308;SDS011;48433;53.016;-2.260;2022-11-13T02:26:27;36.15;;;24.38;;
59308;SDS011;48433;53.016;-2.260;2022-11-13T02:29:16;44.70;;;27.33;;
59308;SDS011;48433;53.016;-2.260;2022-11-13T02:32:02;40.22;;;25.45;;
59308;SDS011;48433;53.016;-2.260;2022-11-13T02:34:48;41.03;;;27.27;;
59308;SDS011;48433;53.016;-2.260;2022-11-13T02:37:34;45.22;;;28.17;;
59308;SDS011;48433;53.016;-2.260;2022-11-13T02:40:20;42.55;;;27.75;;
59308;SDS011;48433;53.016;-2.260;2022-11-13T02:43:06;44.35;;;29.30;;
59308;SDS011;48433;53.016;-2.260;2022-11-13T02:45:53;44.42;;;28.40;;
59308;SDS011;48433;53.016;-2.260;2022-11-13T02:48:39;47.15;;;29.30;;
59308;SDS011;48433;53.016;-2.260;2022-11-13T02:51:25;48.17;;;29.50;;
59308;SDS011;48433;53.016;-2.260;2022-11-13T02:54:11;45.22;;;29.50;;
59308;SDS011;48433;53.016;-2.260;2022-11-13T02:57:02;48.85;;;28.67;;
59308;SDS011;48433;53.016;-2.260;2022-11-13T02:59:48;44.28;;;28.90;;
59308;SDS011;48433;53.016;-2.260;2022-11-13T03:02:34;49.53;;;28.65;;
59308;SDS011;48433;53.016;-2.260;2022-11-13T03:05:20;50.40;;;29.00;;
59308;SDS011;48433;53.016;-2.260;2022-11-13T03:08:07;53.30;;;30.35;;
59308;SDS011;48433;53.016;-2.260;2022-11-13T03:10:53;40.53;;;27.70;;
59308;SDS011;48433;53.016;-2.260;2022-11-13T03:13:40;45.80;;;29.17;;
59308;SDS011;48433;53.016;-2.260;2022-11-13T03:16:26;41.28;;;28.45;;
59308;SDS011;48433;53.016;-2.260;2022-11-13T03:19:13;42.22;;;28.70;;
59308;SDS011;48433;53.016;-2.260;2022-11-13T03:21:59;42.40;;;27.23;;
59308;SDS011;48433;53.016;-2.260;2022-11-13T03:24:45;43.38;;;28.02;;
59308;SDS011;48433;53.016;-2.260;2022-11-13T03:27:32;52.10;;;30.60;;
59308;SDS011;48433;53.016;-2.260;2022-11-13T03:30:18;49.83;;;29.75;;
59308;SDS011;48433;53.016;-2.260;2022-11-13T03:33:04;49.05;;;29.33;;
59308;SDS011;48433;53.016;-2.260;2022-11-13T03:35:51;41.75;;;26.48;;
59308;SDS011;48433;53.016;-2.260;2022-11-13T03:38:37;46.13;;;29.50;;
59308;SDS011;48433;53.016;-2.260;2022-11-13T03:41:24;48.90;;;30.52;;
59308;SDS011;48433;53.016;-2.260;2022-11-13T03:44:10;44.42;;;28.75;;
59308;SDS011;48433;53.016;-2.260;2022-11-13T03:46:57;48.40;;;29.83;;
59308;SDS011;48433;53.016;-2.260;2022-11-13T03:49:42;48.38;;;29.30;;
59308;SDS011;48433;53.016;-2.260;2022-11-13T03:52:29;50.72;;;31.10;;
59308;SDS011;48433;53.016;-2.260;2022-11-13T03:55:15;46.65;;;29.35;;
59308;SDS011;48433;53.016;-2.260;2022-11-13T03:58:01;49.35;;;30.33;;
59308;SDS011;48433;53.016;-2.260;2022-11-13T04:00:47;47.20;;;29.10;;
59308;SDS011;48433;53.016;-2.260;2022-11-13T04:03:34;52.60;;;30.88;;
59308;SDS011;48433;53.016;-2.260;2022-11-13T04:06:20;47.85;;;28.83;;
59308;SDS011;48433;53.016;-2.260;2022-11-13T04:09:06;49.90;;;29.77;;
59308;SDS011;48433;53.016;-2.260;2022-11-13T04:11:52;52.10;;;31.25;;
59308;SDS011;48433;53.016;-2.260;2022-11-13T04:14:39;52.13;;;31.00;;
59308;SDS011;48433;53.016;-2.260;2022-11-13T04:17:24;48.55;;;29.63;;
59308;SDS011;48433;53.016;-2.260;2022-11-13T04:20:11;47.45;;;30.10;;
59308;SDS011;48433;53.016;-2.260;2022-11-13T04:22:57;44.28;;;29.05;;
59308;SDS011;48433;53.016;-2.260;2022-11-13T04:25:43;47.63;;;28.98;;
59308;SDS011;48433;53.016;-2.260;2022-11-13T04:28:29;51.70;;;29.92;;
59308;SDS011;48433;53.016;-2.260;2022-11-13T04:31:16;42.20;;;28.95;;
59308;SDS011;48433;53.016;-2.260;2022-11-13T04:34:02;44.75;;;28.65;;
59308;SDS011;48433;53.016;-2.260;2022-11-13T04:36:49;48.80;;;29.67;;
59308;SDS011;48433;53.016;-2.260;2022-11-13T04:39:34;49.00;;;30.50;;
59308;SDS011;48433;53.016;-2.260;2022-11-13T04:42:21;51.72;;;31.00;;
59308;SDS011;48433;53.016;-2.260;2022-11-13T04:45:26;50.88;;;30.83;;
59308;SDS011;48433;53.016;-2.260;2022-11-13T04:48:12;49.60;;;29.42;;
59308;SDS011;48433;53.016;-2.260;2022-11-13T04:50:58;52.70;;;30.40;;
59308;SDS011;48433;53.016;-2.260;2022-11-13T04:53:44;50.78;;;31.58;;
59308;SDS011;48433;53.016;-2.260;2022-11-13T04:56:30;49.55;;;29.55;;
59308;SDS011;48433;53.016;-2.260;2022-11-13T04:59:16;50.20;;;29.33;;
59308;SDS011;48433;53.016;-2.260;2022-11-13T05:02:03;50.15;;;29.83;;
59308;SDS011;48433;53.016;-2.260;2022-11-13T05:04:50;53.10;;;30.90;;
59308;SDS011;48433;53.016;-2.260;2022-11-13T05:07:36;53.10;;;28.90;;
59308;SDS011;48433;53.016;-2.260;2022-11-13T05:10:22;49.88;;;28.88;;
59308;SDS011;48433;53.016;-2.260;2022-11-13T05:13:08;51.92;;;29.83;;
59308;SDS011;48433;53.016;-2.260;2022-11-13T05:15:59;62.72;;;30.38;;
59308;SDS011;48433;53.016;-2.260;2022-11-13T05:18:49;61.35;;;29.95;;
59308;SDS011;48433;53.016;-2.260;2022-11-13T05:21:36;60.45;;;30.58;;
59308;SDS011;48433;53.016;-2.260;2022-11-13T05:24:23;72.07;;;30.55;;
59308;SDS011;48433;53.016;-2.260;2022-11-13T05:27:10;70.40;;;30.20;;
59308;SDS011;48433;53.016;-2.260;2022-11-13T05:30:02;88.35;;;33.67;;
59308;SDS011;48433;53.016;-2.260;2022-11-13T05:32:49;69.50;;;31.88;;
59308;SDS011;48433;53.016;-2.260;2022-11-13T05:35:36;77.38;;;32.95;;
59308;SDS011;48433;53.016;-2.260;2022-11-13T05:38:22;72.30;;;31.92;;
59308;SDS011;48433;53.016;-2.260;2022-11-13T05:43:58;74.65;;;31.73;;
59308;SDS011;48433;53.016;-2.260;2022-11-13T05:46:44;72.55;;;31.92;;
59308;SDS011;48433;53.016;-2.260;2022-11-13T05:49:31;71.82;;;31.23;;
59308;SDS011;48433;53.016;-2.260;2022-11-13T05:52:16;74.13;;;33.15;;
59308;SDS011;48433;53.016;-2.260;2022-11-13T05:55:03;75.70;;;34.40;;
59308;SDS011;48433;53.016;-2.260;2022-11-13T05:57:50;62.67;;;30.05;;
59308;SDS011;48433;53.016;-2.260;2022-11-13T06:00:36;76.93;;;32.83;;
59308;SDS011;48433;53.016;-2.260;2022-11-13T06:03:22;72.20;;;32.25;;
59308;SDS011;48433;53.016;-2.260;2022-11-13T06:06:10;69.97;;;33.65;;
59308;SDS011;48433;53.016;-2.260;2022-11-13T06:08:59;72.95;;;33.25;;
59308;SDS011;48433;53.016;-2.260;2022-11-13T06:11:46;74.68;;;32.40;;
59308;SDS011;48433;53.016;-2.260;2022-11-13T06:14:33;69.78;;;32.33;;
59308;SDS011;48433;53.016;-2.260;2022-11-13T06:17:19;77.30;;;34.67;;
59308;SDS011;48433;53.016;-2.260;2022-11-13T06:20:05;77.20;;;33.83;;
59308;SDS011;48433;53.016;-2.260;2022-11-13T06:22:51;82.93;;;33.05;;
59308;SDS011;48433;53.016;-2.260;2022-11-13T06:25:37;68.95;;;31.73;;
59308;SDS011;48433;53.016;-2.260;2022-11-13T06:28:23;77.05;;;32.33;;
59308;SDS011;48433;53.016;-2.260;2022-11-13T06:31:11;76.07;;;33.80;;
59308;SDS011;48433;53.016;-2.260;2022-11-13T06:34:05;72.95;;;32.00;;
59308;SDS011;48433;53.016;-2.260;2022-11-13T06:36:51;73.07;;;32.50;;
59308;SDS011;48433;53.016;-2.260;2022-11-13T06:39:36;82.78;;;33.63;;
59308;SDS011;48433;53.016;-2.260;2022-11-13T06:42:22;69.82;;;34.25;;
59308;SDS011;48433;53.016;-2.260;2022-11-13T06:45:08;72.07;;;32.80;;
59308;SDS011;48433;53.016;-2.260;2022-11-13T06:47:55;78.00;;;33.83;;
59308;SDS011;48433;53.016;-2.260;2022-11-13T06:50:41;74.05;;;34.25;;
59308;SDS011;48433;53.016;-2.260;2022-11-13T06:53:33;79.72;;;34.17;;
59308;SDS011;48433;53.016;-2.260;2022-11-13T06:56:20;95.50;;;34.22;;
59308;SDS011;48433;53.016;-2.260;2022-11-13T06:59:06;97.50;;;36.20;;
59308;SDS011;48433;53.016;-2.260;2022-11-13T07:01:53;108.85;;;36.13;;
59308;SDS011;48433;53.016;-2.260;2022-11-13T07:04:39;95.97;;;35.88;;
59308;SDS011;48433;53.016;-2.260;2022-11-13T07:07:25;85.20;;;33.88;;
59308;SDS011;48433;53.016;-2.260;2022-11-13T07:10:11;95.15;;;36.70;;
59308;SDS011;48433;53.016;-2.260;2022-11-13T07:12:58;97.82;;;36.75;;
59308;SDS011;48433;53.016;-2.260;2022-11-13T07:15:45;93.13;;;35.58;;
59308;SDS011;48433;53.016;-2.260;2022-11-13T07:18:31;101.93;;;36.70;;
59308;SDS011;48433;53.016;-2.260;2022-11-13T07:21:19;102.57;;;37.00;;
59308;SDS011;48433;53.016;-2.260;2022-11-13T07:24:05;110.35;;;38.83;;
59308;SDS011;48433;53.016;-2.260;2022-11-13T07:26:57;126.40;;;41.50;;
59308;SDS011;48433;53.016;-2.260;2022-11-13T07:29:43;111.20;;;37.60;;
59308;SDS011;48433;53.016;-2.260;2022-11-13T07:32:29;96.45;;;37.35;;
59308;SDS011;48433;53.016;-2.260;2022-11-13T07:35:15;104.53;;;38.03;;
59308;SDS011;48433;53.016;-2.260;2022-11-13T07:38:02;115.53;;;38.97;;
59308;SDS011;48433;53.016;-2.260;2022-11-13T07:40:48;127.07;;;38.25;;
59308;SDS011;48433;53.016;-2.260;2022-11-13T07:43:35;122.03;;;37.33;;
59308;SDS011;48433;53.016;-2.260;2022-11-13T07:46:22;110.40;;;35.28;;
59308;SDS011;48433;53.016;-2.260;2022-11-13T07:49:07;99.90;;;34.80;;
59308;SDS011;48433;53.016;-2.260;2022-11-13T07:51:54;92.03;;;34.97;;
59308;SDS011;48433;53.016;-2.260;2022-11-13T07:54:40;105.38;;;35.25;;
59308;SDS011;48433;53.016;-2.260;2022-11-13T07:57:27;95.53;;;31.70;;
59308;SDS011;48433;53.016;-2.260;2022-11-13T08:00:13;89.97;;;33.83;;
59308;SDS011;48433;53.016;-2.260;2022-11-13T08:03:15;88.13;;;32.78;;
59308;SDS011;48433;53.016;-2.260;2022-11-13T08:06:02;81.22;;;29.83;;
59308;SDS011;48433;53.016;-2.260;2022-11-13T08:08:50;86.45;;;32.17;;
59308;SDS011;48433;53.016;-2.260;2022-11-13T08:11:37;69.32;;;28.85;;
59308;SDS011;48433;53.016;-2.260;2022-11-13T08:14:23;84.95;;;31.02;;
59308;SDS011;48433;53.016;-2.260;2022-11-13T08:17:09;87.72;;;32.05;;
59308;SDS011;48433;53.016;-2.260;2022-11-13T08:19:56;84.78;;;31.48;;
59308;SDS011;48433;53.016;-2.260;2022-11-13T08:22:42;87.10;;;31.33;;
59308;SDS011;48433;53.016;-2.260;2022-11-13T08:25:29;89.32;;;31.05;;
59308;SDS011;48433;53.016;-2.260;2022-11-13T08:28:16;80.07;;;30.30;;
59308;SDS011;48433;53.016;-2.260;2022-11-13T08:31:02;77.13;;;28.25;;
59308;SDS011;48433;53.016;-2.260;2022-11-13T08:33:49;75.45;;;29.50;;
59308;SDS011;48433;53.016;-2.260;2022-11-13T08:36:35;79.28;;;28.48;;
59308;SDS011;48433;53.016;-2.260;2022-11-13T08:39:22;71.85;;;28.30;;
59308;SDS011;48433;53.016;-2.260;2022-11-13T08:42:08;71.47;;;27.27;;
59308;SDS011;48433;53.016;-2.260;2022-11-13T08:44:54;72.78;;;28.45;;
59308;SDS011;48433;53.016;-2.260;2022-11-13T08:47:40;72.68;;;28.52;;
59308;SDS011;48433;53.016;-2.260;2022-11-13T08:50:27;81.75;;;29.52;;
59308;SDS011;48433;53.016;-2.260;2022-11-13T08:53:13;73.22;;;28.73;;
59308;SDS011;48433;53.016;-2.260;2022-11-13T08:56:00;66.13;;;27.55;;
59308;SDS011;48433;53.016;-2.260;2022-11-13T08:58:47;60.75;;;25.63;;
59308;SDS011;48433;53.016;-2.260;2022-11-13T09:01:33;55.78;;;25.65;;
59308;SDS011;48433;53.016;-2.260;2022-11-13T09:04:19;58.95;;;26.65;;
59308;SDS011;48433;53.016;-2.260;2022-11-13T09:07:05;54.80;;;24.25;;
59308;SDS011;48433;53.016;-2.260;2022-11-13T09:09:52;56.58;;;24.60;;
59308;SDS011;48433;53.016;-2.260;2022-11-13T09:12:38;47.97;;;22.92;;
59308;SDS011;48433;53.016;-2.260;2022-11-13T09:15:25;55.80;;;25.95;;
59308;SDS011;48433;53.016;-2.260;2022-11-13T09:18:11;59.80;;;24.38;;
59308;SDS011;48433;53.016;-2.260;2022-11-13T09:21:01;54.28;;;23.08;;
59308;SDS011;48433;53.016;-2.260;2022-11-13T09:23:47;63.10;;;26.23;;
59308;SDS011;48433;53.016;-2.260;2022-11-13T09:26:34;57.47;;;24.88;;
59308;SDS011;48433;53.016;-2.260;2022-11-13T09:29:20;49.10;;;23.40;;
59308;SDS011;48433;53.016;-2.260;2022-11-13T09:32:07;45.92;;;21.63;;
59308;SDS011;48433;53.016;-2.260;2022-11-13T09:34:54;41.53;;;21.42;;
59308;SDS011;48433;53.016;-2.260;2022-11-13T09:37:40;37.60;;;19.88;;
59308;SDS011;48433;53.016;-2.260;2022-11-13T09:40:35;35.75;;;17.90;;
59308;SDS011;48433;53.016;-2.260;2022-11-13T09:43:47;36.15;;;18.63;;
59308;SDS011;48433;53.016;-2.260;2022-11-13T09:46:43;40.13;;;19.25;;
59308;SDS011;48433;53.016;-2.260;2022-11-13T09:49:37;38.65;;;18.77;;
59308;SDS011;48433;53.016;-2.260;2022-11-13T09:52:46;42.55;;;20.92;;
59308;SDS011;48433;53.016;-2.260;2022-11-13T09:55:34;37.47;;;19.48;;
59308;SDS011;48433;53.016;-2.260;2022-11-13T09:58:48;34.13;;;18.75;;
59308;SDS011;48433;53.016;-2.260;2022-11-13T10:02:00;36.63;;;19.48;;
59308;SDS011;48433;53.016;-2.260;2022-11-13T10:11:45;35.08;;;19.00;;
59308;SDS011;48433;53.016;-2.260;2022-11-13T10:14:38;31.23;;;18.25;;
59308;SDS011;48433;53.016;-2.260;2022-11-13T10:17:38;36.05;;;19.15;;
59308;SDS011;48433;53.016;-2.260;2022-11-13T10:20:51;29.45;;;16.20;;
59308;SDS011;48433;53.016;-2.260;2022-11-13T10:23:43;31.88;;;16.73;;
59308;SDS011;48433;53.016;-2.260;2022-11-13T10:26:36;32.38;;;17.30;;
59308;SDS011;48433;53.016;-2.260;2022-11-13T10:29:22;28.42;;;16.25;;
59308;SDS011;48433;53.016;-2.260;2022-11-13T10:32:17;28.25;;;15.90;;
59308;SDS011;48433;53.016;-2.260;2022-11-13T10:40:39;24.38;;;14.70;;
59308;SDS011;48433;53.016;-2.260;2022-11-13T10:43:26;24.02;;;14.57;;
59308;SDS011;48433;53.016;-2.260;2022-11-13T10:46:17;23.52;;;13.45;;
59308;SDS011;48433;53.016;-2.260;2022-11-13T10:49:12;19.52;;;12.43;;
59308;SDS011;48433;53.016;-2.260;2022-11-13T10:52:11;17.75;;;11.20;;
59308;SDS011;48433;53.016;-2.260;2022-11-13T10:55:21;20.17;;;13.05;;
59308;SDS011;48433;53.016;-2.260;2022-11-13T10:58:20;22.65;;;12.75;;
59308;SDS011;48433;53.016;-2.260;2022-11-13T11:01:22;18.30;;;12.15;;
59308;SDS011;48433;53.016;-2.260;2022-11-13T11:04:13;17.45;;;12.65;;
59308;SDS011;48433;53.016;-2.260;2022-11-13T11:07:18;18.60;;;12.30;;
59308;SDS011;48433;53.016;-2.260;2022-11-13T11:13:09;16.73;;;11.55;;
59308;SDS011;48433;53.016;-2.260;2022-11-13T11:18:54;19.77;;;12.75;;
59308;SDS011;48433;53.016;-2.260;2022-11-13T11:21:46;21.33;;;13.52;;
59308;SDS011;48433;53.016;-2.260;2022-11-13T11:24:37;22.33;;;12.63;;
59308;SDS011;48433;53.016;-2.260;2022-11-13T11:27:31;23.23;;;13.77;;
59308;SDS011;48433;53.016;-2.260;2022-11-13T11:30:22;20.10;;;13.75;;
59308;SDS011;48433;53.016;-2.260;2022-11-13T11:33:12;23.02;;;14.20;;
59308;SDS011;48433;53.016;-2.260;2022-11-13T11:36:06;21.70;;;14.85;;
59308;SDS011;48433;53.016;-2.260;2022-11-13T11:39:05;22.63;;;13.38;;
59308;SDS011;48433;53.016;-2.260;2022-11-13T11:45:39;17.23;;;12.15;;
59308;SDS011;48433;53.016;-2.260;2022-11-13T11:48:30;20.65;;;13.43;;
59308;SDS011;48433;53.016;-2.260;2022-11-13T11:51:24;18.65;;;12.70;;
59308;SDS011;48433;53.016;-2.260;2022-11-13T11:54:24;21.17;;;12.05;;
59308;SDS011;48433;53.016;-2.260;2022-11-13T12:00:44;16.52;;;11.68;;
59308;SDS011;48433;53.016;-2.260;2022-11-13T12:09:31;17.05;;;10.77;;
59308;SDS011;48433;53.016;-2.260;2022-11-13T12:12:39;16.45;;;11.05;;
59308;SDS011;48433;53.016;-2.260;2022-11-13T12:15:53;18.35;;;11.80;;
59308;SDS011;48433;53.016;-2.260;2022-11-13T12:19:07;16.65;;;11.90;;
59308;SDS011;48433;53.016;-2.260;2022-11-13T12:36:58;26.45;;;16.63;;
59308;SDS011;48433;53.016;-2.260;2022-11-13T12:39:56;25.48;;;15.57;;
59308;SDS011;48433;53.016;-2.260;2022-11-13T12:42:47;22.80;;;14.50;;
59308;SDS011;48433;53.016;-2.260;2022-11-13T12:51:37;23.55;;;15.48;;
59308;SDS011;48433;53.016;-2.260;2022-11-13T12:54:34;23.48;;;15.30;;
59308;SDS011;48433;53.016;-2.260;2022-11-13T12:57:22;22.77;;;14.88;;
59308;SDS011;48433;53.016;-2.260;2022-11-13T13:21:16;18.70;;;12.32;;
59308;SDS011;48433;53.016;-2.260;2022-11-13T13:24:07;17.98;;;12.02;;
59308;SDS011;48433;53.016;-2.260;2022-11-13T13:27:24;21.17;;;13.57;;
59308;SDS011;48433;53.016;-2.260;2022-11-13T13:30:17;23.17;;;15.18;;
59308;SDS011;48433;53.016;-2.260;2022-11-13T13:33:18;21.75;;;13.88;;
59308;SDS011;48433;53.016;-2.260;2022-11-13T13:45:36;18.65;;;13.32;;
59308;SDS011;48433;53.016;-2.260;2022-11-13T13:48:32;20.95;;;12.93;;
59308;SDS011;48433;53.016;-2.260;2022-11-13T13:54:18;22.48;;;13.73;;
59308;SDS011;48433;53.016;-2.260;2022-11-13T13:57:11;22.70;;;13.88;;
59308;SDS011;48433;53.016;-2.260;2022-11-13T14:00:00;20.08;;;13.75;;
59308;SDS011;48433;53.016;-2.260;2022-11-13T14:02:47;17.30;;;12.93;;
59308;SDS011;48433;53.016;-2.260;2022-11-13T14:05:35;17.70;;;12.60;;
59308;SDS011;48433;53.016;-2.260;2022-11-13T14:08:23;17.73;;;12.63;;
59308;SDS011;48433;53.016;-2.260;2022-11-13T14:14:09;22.70;;;15.73;;
59308;SDS011;48433;53.016;-2.260;2022-11-13T14:17:07;23.98;;;18.13;;
59308;SDS011;48433;53.016;-2.260;2022-11-13T14:19:55;106.88;;;73.45;;
59308;SDS011;48433;53.016;-2.260;2022-11-13T14:22:48;52.10;;;46.72;;
59308;SDS011;48433;53.016;-2.260;2022-11-13T14:25:41;338.88;;;231.18;;
59308;SDS011;48433;53.016;-2.260;2022-11-13T14:28:41;30.48;;;22.85;;
59308;SDS011;48433;53.016;-2.260;2022-11-13T14:31:37;26.58;;;21.00;;
59308;SDS011;48433;53.016;-2.260;2022-11-13T14:34:24;27.98;;;19.15;;
59308;SDS011;48433;53.016;-2.260;2022-11-13T14:43:24;17.60;;;13.10;;
59308;SDS011;48433;53.016;-2.260;2022-11-13T14:49:28;20.40;;;12.60;;
59308;SDS011;48433;53.016;-2.260;2022-11-13T14:52:20;20.90;;;12.77;;
59308;SDS011;48433;53.016;-2.260;2022-11-13T14:55:24;20.73;;;13.50;;
59308;SDS011;48433;53.016;-2.260;2022-11-13T14:58:12;17.00;;;12.45;;
59308;SDS011;48433;53.016;-2.260;2022-11-13T15:01:11;18.10;;;12.95;;
59308;SDS011;48433;53.016;-2.260;2022-11-13T15:03:58;18.15;;;13.20;;
59308;SDS011;48433;53.016;-2.260;2022-11-13T15:06:45;17.30;;;12.25;;
59308;SDS011;48433;53.016;-2.260;2022-11-13T15:09:33;17.15;;;11.90;;
59308;SDS011;48433;53.016;-2.260;2022-11-13T15:12:19;19.15;;;14.02;;
59308;SDS011;48433;53.016;-2.260;2022-11-13T15:15:05;21.27;;;13.60;;
59308;SDS011;48433;53.016;-2.260;2022-11-13T15:17:53;21.77;;;13.82;;
59308;SDS011;48433;53.016;-2.260;2022-11-13T15:20:39;19.67;;;13.93;;
59308;SDS011;48433;53.016;-2.260;2022-11-13T15:23:26;20.73;;;14.30;;
59308;SDS011;48433;53.016;-2.260;2022-11-13T15:26:14;20.38;;;14.43;;
59308;SDS011;48433;53.016;-2.260;2022-11-13T15:29:00;19.73;;;14.57;;
59308;SDS011;48433;53.016;-2.260;2022-11-13T15:31:46;18.63;;;14.30;;
59308;SDS011;48433;53.016;-2.260;2022-11-13T15:34:32;22.40;;;15.60;;
59308;SDS011;48433;53.016;-2.260;2022-11-13T15:37:18;21.45;;;15.95;;
59308;SDS011;48433;53.016;-2.260;2022-11-13T15:40:05;25.50;;;15.75;;
59308;SDS011;48433;53.016;-2.260;2022-11-13T15:42:51;18.23;;;13.15;;
59308;SDS011;48433;53.016;-2.260;2022-11-13T15:45:37;20.88;;;15.02;;
59308;SDS011;48433;53.016;-2.260;2022-11-13T15:48:28;20.73;;;15.55;;
59308;SDS011;48433;53.016;-2.260;2022-11-13T15:51:26;19.45;;;14.27;;
59308;SDS011;48433;53.016;-2.260;2022-11-13T15:54:31;22.40;;;14.82;;
59308;SDS011;48433;53.016;-2.260;2022-11-13T15:57:21;22.90;;;15.70;;
59308;SDS011;48433;53.016;-2.260;2022-11-13T16:00:15;19.90;;;15.35;;
59308;SDS011;48433;53.016;-2.260;2022-11-13T16:03:05;21.85;;;16.08;;
59308;SDS011;48433;53.016;-2.260;2022-11-13T16:05:57;20.00;;;15.10;;
59308;SDS011;48433;53.016;-2.260;2022-11-13T16:08:44;23.10;;;15.23;;
59308;SDS011;48433;53.016;-2.260;2022-11-13T16:11:31;21.08;;;16.27;;
59308;SDS011;48433;53.016;-2.260;2022-11-13T16:14:18;24.50;;;17.00;;
59308;SDS011;48433;53.016;-2.260;2022-11-13T16:17:13;21.80;;;16.95;;
59308;SDS011;48433;53.016;-2.260;2022-11-13T16:20:04;23.25;;;16.58;;
59308;SDS011;48433;53.016;-2.260;2022-11-13T16:22:54;22.00;;;15.68;;
59308;SDS011;48433;53.016;-2.260;2022-11-13T16:25:41;23.52;;;16.98;;
59308;SDS011;48433;53.016;-2.260;2022-11-13T16:28:28;24.38;;;17.23;;
59308;SDS011;48433;53.016;-2.260;2022-11-13T16:31:22;28.02;;;18.40;;
59308;SDS011;48433;53.016;-2.260;2022-11-13T16:34:08;22.75;;;17.42;;
59308;SDS011;48433;53.016;-2.260;2022-11-13T16:36:54;23.42;;;18.05;;
59308;SDS011;48433;53.016;-2.260;2022-11-13T16:39:41;27.30;;;19.13;;
59308;SDS011;48433;53.016;-2.260;2022-11-13T16:42:27;27.75;;;19.52;;
59308;SDS011;48433;53.016;-2.260;2022-11-13T16:45:15;28.77;;;19.98;;
59308;SDS011;48433;53.016;-2.260;2022-11-13T16:48:02;30.10;;;20.13;;
59308;SDS011;48433;53.016;-2.260;2022-11-13T16:50:59;28.15;;;19.88;;
59308;SDS011;48433;53.016;-2.260;2022-11-13T16:53:46;30.70;;;21.17;;
59308;SDS011;48433;53.016;-2.260;2022-11-13T16:56:32;28.25;;;20.92;;
59308;SDS011;48433;53.016;-2.260;2022-11-13T16:59:17;30.35;;;20.83;;
59308;SDS011;48433;53.016;-2.260;2022-11-13T17:02:15;27.60;;;19.77;;
59308;SDS011;48433;53.016;-2.260;2022-11-13T17:05:02;26.85;;;20.90;;
59308;SDS011;48433;53.016;-2.260;2022-11-13T17:07:49;28.02;;;19.77;;
59308;SDS011;48433;53.016;-2.260;2022-11-13T17:10:39;27.95;;;21.75;;
59308;SDS011;48433;53.016;-2.260;2022-11-13T17:13:25;32.03;;;20.77;;
59308;SDS011;48433;53.016;-2.260;2022-11-13T17:16:12;35.33;;;22.38;;
59308;SDS011;48433;53.016;-2.260;2022-11-13T17:18:59;33.00;;;23.20;;
59308;SDS011;48433;53.016;-2.260;2022-11-13T17:21:44;33.65;;;22.70;;
59308;SDS011;48433;53.016;-2.260;2022-11-13T17:24:31;34.53;;;23.42;;
59308;SDS011;48433;53.016;-2.260;2022-11-13T17:27:17;30.92;;;22.75;;
59308;SDS011;48433;53.016;-2.260;2022-11-13T17:30:04;32.22;;;24.17;;
59308;SDS011;48433;53.016;-2.260;2022-11-13T17:32:50;34.90;;;23.63;;
59308;SDS011;48433;53.016;-2.260;2022-11-13T17:35:36;37.80;;;25.38;;
59308;SDS011;48433;53.016;-2.260;2022-11-13T17:38:22;31.85;;;24.20;;
59308;SDS011;48433;53.016;-2.260;2022-11-13T17:41:10;34.08;;;23.98;;
59308;SDS011;48433;53.016;-2.260;2022-11-13T17:43:57;32.00;;;23.17;;
59308;SDS011;48433;53.016;-2.260;2022-11-13T17:46:46;34.38;;;24.88;;
59308;SDS011;48433;53.016;-2.260;2022-11-13T17:49:32;38.05;;;25.83;;
59308;SDS011;48433;53.016;-2.260;2022-11-13T17:52:19;35.75;;;24.15;;
59308;SDS011;48433;53.016;-2.260;2022-11-13T17:55:04;38.85;;;26.23;;
59308;SDS011;48433;53.016;-2.260;2022-11-13T17:57:57;34.17;;;23.35;;
59308;SDS011;48433;53.016;-2.260;2022-11-13T18:00:44;37.42;;;25.95;;